sensor_id;sensor_type;location;lat;lon;timestamp;temperature;humidity
4604;DHT22;2314;48.272;11.562;2023-09-07T00:01:57;13.90;99.90
4604;DHT22;2314;48.272;11.562;2023-09-07T00:04:25;13.90;99.90
4604;DHT22;2314;48.272;11.562;2023-09-07T00:06:52;13.90;99.90
4604;DHT22;2314;48.272;11.562;2023-09-07T00:09:19;13.90;99.90
4604;DHT22;2314;48.272;11.562;2023-09-07T00:11:47;13.80;99.90
4604;DHT22;2314;48.272;11.562;2023-09-07T00:14:15;13.80;99.90
4604;DHT22;2314;48.272;11.562;2023-09-07T00:16:42;13.80;99.90
4604;DHT22;2314;48.272;11.562;2023-09-07T00:19:09;13.70;99.90
4604;DHT22;2314;48.272;11.562;2023-09-07T00:21:37;13.70;99.90
4604;DHT22;2314;48.272;11.562;2023-09-07T00:24:04;13.60;99.90
4604;DHT22;2314;48.272;11.562;2023-09-07T00:26:32;13.60;99.90
4604;DHT22;2314;48.272;11.562;2023-09-07T00:29:00;13.50;99.90
4604;DHT22;2314;48.272;11.562;2023-09-07T00:31:28;13.50;99.90
4604;DHT22;2314;48.272;11.562;2023-09-07T00:33:54;13.50;99.90
4604;DHT22;2314;48.272;11.562;2023-09-07T00:36:21;13.40;99.90
4604;DHT22;2314;48.272;11.562;2023-09-07T00:38:50;13.40;99.90
4604;DHT22;2314;48.272;11.562;2023-09-07T00:41:17;13.40;99.90
4604;DHT22;2314;48.272;11.562;2023-09-07T00:43:44;13.40;99.90
4604;DHT22;2314;48.272;11.562;2023-09-07T00:46:11;13.40;99.90
4604;DHT22;2314;48.272;11.562;2023-09-07T00:48:38;13.40;99.90
4604;DHT22;2314;48.272;11.562;2023-09-07T00:51:07;13.40;99.90
4604;DHT22;2314;48.272;11.562;2023-09-07T00:53:34;13.30;99.90
4604;DHT22;2314;48.272;11.562;2023-09-07T00:56:05;13.30;99.90
4604;DHT22;2314;48.272;11.562;2023-09-07T00:58:32;13.20;99.90
4604;DHT22;2314;48.272;11.562;2023-09-07T01:01:00;13.20;99.90
4604;DHT22;2314;48.272;11.562;2023-09-07T01:03:28;13.20;99.90
4604;DHT22;2314;48.272;11.562;2023-09-07T01:05:58;13.10;99.90
4604;DHT22;2314;48.272;11.562;2023-09-07T01:08:32;13.10;99.90
4604;DHT22;2314;48.272;11.562;2023-09-07T01:11:13;13.10;99.90
4604;DHT22;2314;48.272;11.562;2023-09-07T01:13:41;13.10;99.90
4604;DHT22;2314;48.272;11.562;2023-09-07T01:16:09;13.00;99.90
4604;DHT22;2314;48.272;11.562;2023-09-07T01:18:37;13.00;99.90
4604;DHT22;2314;48.272;11.562;2023-09-07T01:21:05;13.00;99.90
4604;DHT22;2314;48.272;11.562;2023-09-07T01:23:36;13.00;99.90
4604;DHT22;2314;48.272;11.562;2023-09-07T01:26:05;13.00;99.90
4604;DHT22;2314;48.272;11.562;2023-09-07T01:28:32;13.00;99.90
4604;DHT22;2314;48.272;11.562;2023-09-07T01:31:00;13.00;99.90
4604;DHT22;2314;48.272;11.562;2023-09-07T01:33:27;13.00;99.90
4604;DHT22;2314;48.272;11.562;2023-09-07T01:35:54;13.00;99.90
4604;DHT22;2314;48.272;11.562;2023-09-07T01:38:21;13.00;99.90
4604;DHT22;2314;48.272;11.562;2023-09-07T01:40:49;12.90;99.90
4604;DHT22;2314;48.272;11.562;2023-09-07T01:43:16;12.90;99.90
4604;DHT22;2314;48.272;11.562;2023-09-07T01:45:43;13.00;99.90
4604;DHT22;2314;48.272;11.562;2023-09-07T01:48:11;12.90;99.90
4604;DHT22;2314;48.272;11.562;2023-09-07T01:50:40;12.90;99.90
4604;DHT22;2314;48.272;11.562;2023-09-07T01:53:07;12.80;99.90
4604;DHT22;2314;48.272;11.562;2023-09-07T01:55:34;12.80;99.90
4604;DHT22;2314;48.272;11.562;2023-09-07T01:58:03;12.80;99.90
4604;DHT22;2314;48.272;11.562;2023-09-07T02:00:30;12.80;99.90
4604;DHT22;2314;48.272;11.562;2023-09-07T02:02:58;12.70;99.90
4604;DHT22;2314;48.272;11.562;2023-09-07T02:05:25;12.70;99.90
4604;DHT22;2314;48.272;11.562;2023-09-07T02:07:52;12.70;99.90
4604;DHT22;2314;48.272;11.562;2023-09-07T02:10:19;12.70;99.90
4604;DHT22;2314;48.272;11.562;2023-09-07T02:12:46;12.70;99.90
4604;DHT22;2314;48.272;11.562;2023-09-07T02:15:15;12.60;99.90
4604;DHT22;2314;48.272;11.562;2023-09-07T02:17:42;12.60;99.90
4604;DHT22;2314;48.272;11.562;2023-09-07T02:20:11;12.60;99.90
4604;DHT22;2314;48.272;11.562;2023-09-07T02:22:38;12.60;99.90
4604;DHT22;2314;48.272;11.562;2023-09-07T02:25:06;12.60;99.90
4604;DHT22;2314;48.272;11.562;2023-09-07T02:27:33;12.50;99.90
4604;DHT22;2314;48.272;11.562;2023-09-07T02:30:02;12.50;99.90
4604;DHT22;2314;48.272;11.562;2023-09-07T02:32:32;12.50;99.90
4604;DHT22;2314;48.272;11.562;2023-09-07T02:34:58;12.50;99.90
4604;DHT22;2314;48.272;11.562;2023-09-07T02:37:25;12.50;99.90
4604;DHT22;2314;48.272;11.562;2023-09-07T02:39:52;12.40;99.90
4604;DHT22;2314;48.272;11.562;2023-09-07T02:42:19;12.40;99.90
4604;DHT22;2314;48.272;11.562;2023-09-07T02:44:47;12.30;99.90
4604;DHT22;2314;48.272;11.562;2023-09-07T02:47:14;12.30;99.90
4604;DHT22;2314;48.272;11.562;2023-09-07T02:49:42;12.30;99.90
4604;DHT22;2314;48.272;11.562;2023-09-07T02:52:09;12.30;99.90
4604;DHT22;2314;48.272;11.562;2023-09-07T02:54:36;12.30;99.90
4604;DHT22;2314;48.272;11.562;2023-09-07T02:57:03;12.20;99.90
4604;DHT22;2314;48.272;11.562;2023-09-07T02:59:30;12.20;99.90
4604;DHT22;2314;48.272;11.562;2023-09-07T03:01:57;12.20;99.90
4604;DHT22;2314;48.272;11.562;2023-09-07T03:04:24;12.20;99.90
4604;DHT22;2314;48.272;11.562;2023-09-07T03:06:53;12.10;99.90
4604;DHT22;2314;48.272;11.562;2023-09-07T03:09:20;12.10;99.90
4604;DHT22;2314;48.272;11.562;2023-09-07T03:11:47;12.10;99.90
4604;DHT22;2314;48.272;11.562;2023-09-07T03:14:13;12.10;99.90
4604;DHT22;2314;48.272;11.562;2023-09-07T03:16:40;12.10;99.90
4604;DHT22;2314;48.272;11.562;2023-09-07T03:19:07;12.10;99.90
4604;DHT22;2314;48.272;11.562;2023-09-07T03:21:34;12.10;99.90
4604;DHT22;2314;48.272;11.562;2023-09-07T03:24:03;12.00;99.90
4604;DHT22;2314;48.272;11.562;2023-09-07T03:26:30;12.00;99.90
4604;DHT22;2314;48.272;11.562;2023-09-07T03:28:57;11.90;99.90
4604;DHT22;2314;48.272;11.562;2023-09-07T03:31:24;11.90;99.90
4604;DHT22;2314;48.272;11.562;2023-09-07T03:33:51;11.80;99.90
4604;DHT22;2314;48.272;11.562;2023-09-07T03:36:18;11.80;99.90
4604;DHT22;2314;48.272;11.562;2023-09-07T03:38:45;11.80;99.90
4604;DHT22;2314;48.272;11.562;2023-09-07T03:41:13;11.80;99.90
4604;DHT22;2314;48.272;11.562;2023-09-07T03:43:40;11.80;99.90
4604;DHT22;2314;48.272;11.562;2023-09-07T03:46:07;11.70;99.90
4604;DHT22;2314;48.272;11.562;2023-09-07T03:48:34;11.70;99.90
4604;DHT22;2314;48.272;11.562;2023-09-07T03:51:04;11.70;99.90
4604;DHT22;2314;48.272;11.562;2023-09-07T03:53:32;11.70;99.90
4604;DHT22;2314;48.272;11.562;2023-09-07T03:55:59;11.60;99.90
4604;DHT22;2314;48.272;11.562;2023-09-07T03:58:30;11.60;99.90
4604;DHT22;2314;48.272;11.562;2023-09-07T04:00:59;11.50;99.90
4604;DHT22;2314;48.272;11.562;2023-09-07T04:03:26;11.50;99.90
4604;DHT22;2314;48.272;11.562;2023-09-07T04:05:53;11.50;99.90
4604;DHT22;2314;48.272;11.562;2023-09-07T04:08:20;11.50;99.90
4604;DHT22;2314;48.272;11.562;2023-09-07T04:10:47;11.50;99.90
4604;DHT22;2314;48.272;11.562;2023-09-07T04:13:14;11.40;99.90
4604;DHT22;2314;48.272;11.562;2023-09-07T04:15:44;11.40;99.90
4604;DHT22;2314;48.272;11.562;2023-09-07T04:18:12;11.40;99.90
4604;DHT22;2314;48.272;11.562;2023-09-07T04:20:40;11.40;99.90
4604;DHT22;2314;48.272;11.562;2023-09-07T04:23:07;11.40;99.90
4604;DHT22;2314;48.272;11.562;2023-09-07T04:25:34;11.40;99.90
4604;DHT22;2314;48.272;11.562;2023-09-07T04:28:02;11.40;99.90
4604;DHT22;2314;48.272;11.562;2023-09-07T04:30:29;11.30;99.90
4604;DHT22;2314;48.272;11.562;2023-09-07T04:32:57;11.30;99.90
4604;DHT22;2314;48.272;11.562;2023-09-07T04:35:28;11.30;99.90
4604;DHT22;2314;48.272;11.562;2023-09-07T04:37:55;11.20;99.90
4604;DHT22;2314;48.272;11.562;2023-09-07T04:40:23;11.20;99.90
4604;DHT22;2314;48.272;11.562;2023-09-07T04:42:50;11.10;99.90
4604;DHT22;2314;48.272;11.562;2023-09-07T04:45:17;11.20;99.90
4604;DHT22;2314;48.272;11.562;2023-09-07T04:47:44;11.10;99.90
4604;DHT22;2314;48.272;11.562;2023-09-07T04:50:13;11.10;99.90
4604;DHT22;2314;48.272;11.562;2023-09-07T04:52:40;11.10;99.90
4604;DHT22;2314;48.272;11.562;2023-09-07T04:55:07;11.10;99.90
4604;DHT22;2314;48.272;11.562;2023-09-07T04:57:36;11.10;99.90
4604;DHT22;2314;48.272;11.562;2023-09-07T05:00:04;11.10;99.90
4604;DHT22;2314;48.272;11.562;2023-09-07T05:02:33;11.10;99.90
4604;DHT22;2314;48.272;11.562;2023-09-07T05:05:04;11.10;99.90
4604;DHT22;2314;48.272;11.562;2023-09-07T05:07:33;11.10;99.90
4604;DHT22;2314;48.272;11.562;2023-09-07T05:10:00;11.10;99.90
4604;DHT22;2314;48.272;11.562;2023-09-07T05:12:28;11.20;99.90
4604;DHT22;2314;48.272;11.562;2023-09-07T05:14:55;11.20;99.90
4604;DHT22;2314;48.272;11.562;2023-09-07T05:17:22;11.30;99.90
4604;DHT22;2314;48.272;11.562;2023-09-07T05:19:49;11.30;99.90
4604;DHT22;2314;48.272;11.562;2023-09-07T05:22:16;11.30;99.90
4604;DHT22;2314;48.272;11.562;2023-09-07T05:24:44;11.40;99.90
4604;DHT22;2314;48.272;11.562;2023-09-07T05:27:13;11.40;99.90
4604;DHT22;2314;48.272;11.562;2023-09-07T05:29:40;11.50;99.90
4604;DHT22;2314;48.272;11.562;2023-09-07T05:32:06;11.50;99.90
4604;DHT22;2314;48.272;11.562;2023-09-07T05:34:36;11.60;99.90
4604;DHT22;2314;48.272;11.562;2023-09-07T05:37:03;11.60;99.90
4604;DHT22;2314;48.272;11.562;2023-09-07T05:39:30;11.70;99.90
4604;DHT22;2314;48.272;11.562;2023-09-07T05:41:59;11.70;99.90
4604;DHT22;2314;48.272;11.562;2023-09-07T05:44:26;11.80;99.90
4604;DHT22;2314;48.272;11.562;2023-09-07T05:46:53;11.80;99.90
4604;DHT22;2314;48.272;11.562;2023-09-07T05:49:20;11.90;99.90
4604;DHT22;2314;48.272;11.562;2023-09-07T05:51:47;12.00;99.90
4604;DHT22;2314;48.272;11.562;2023-09-07T05:54:14;12.10;99.90
4604;DHT22;2314;48.272;11.562;2023-09-07T05:56:41;12.20;99.90
4604;DHT22;2314;48.272;11.562;2023-09-07T05:59:09;12.40;99.90
4604;DHT22;2314;48.272;11.562;2023-09-07T06:01:36;12.50;99.90
4604;DHT22;2314;48.272;11.562;2023-09-07T06:04:03;12.70;99.90
4604;DHT22;2314;48.272;11.562;2023-09-07T06:06:30;12.90;99.90
4604;DHT22;2314;48.272;11.562;2023-09-07T06:08:57;13.00;99.90
4604;DHT22;2314;48.272;11.562;2023-09-07T06:11:25;13.10;99.90
4604;DHT22;2314;48.272;11.562;2023-09-07T06:13:52;13.20;99.90
4604;DHT22;2314;48.272;11.562;2023-09-07T06:16:20;13.30;99.90
4604;DHT22;2314;48.272;11.562;2023-09-07T06:18:47;13.50;99.90
4604;DHT22;2314;48.272;11.562;2023-09-07T06:21:14;13.70;99.90
4604;DHT22;2314;48.272;11.562;2023-09-07T06:23:41;13.70;99.90
4604;DHT22;2314;48.272;11.562;2023-09-07T06:26:08;13.70;99.90
4604;DHT22;2314;48.272;11.562;2023-09-07T06:28:36;13.80;99.90
4604;DHT22;2314;48.272;11.562;2023-09-07T06:31:04;13.90;99.90
4604;DHT22;2314;48.272;11.562;2023-09-07T06:33:32;14.00;99.90
4604;DHT22;2314;48.272;11.562;2023-09-07T06:36:00;14.10;99.90
4604;DHT22;2314;48.272;11.562;2023-09-07T06:38:28;14.20;99.90
4604;DHT22;2314;48.272;11.562;2023-09-07T06:40:55;14.20;99.90
4604;DHT22;2314;48.272;11.562;2023-09-07T06:43:22;14.30;99.90
4604;DHT22;2314;48.272;11.562;2023-09-07T06:45:49;14.40;99.90
4604;DHT22;2314;48.272;11.562;2023-09-07T06:48:16;14.50;99.90
4604;DHT22;2314;48.272;11.562;2023-09-07T06:50:44;14.60;99.90
4604;DHT22;2314;48.272;11.562;2023-09-07T06:53:11;14.60;99.90
4604;DHT22;2314;48.272;11.562;2023-09-07T06:55:38;14.70;99.90
4604;DHT22;2314;48.272;11.562;2023-09-07T06:58:06;14.70;99.90
4604;DHT22;2314;48.272;11.562;2023-09-07T07:00:33;14.80;99.90
4604;DHT22;2314;48.272;11.562;2023-09-07T07:03:00;14.80;99.90
4604;DHT22;2314;48.272;11.562;2023-09-07T07:05:28;14.90;99.90
4604;DHT22;2314;48.272;11.562;2023-09-07T07:07:56;15.00;99.90
4604;DHT22;2314;48.272;11.562;2023-09-07T07:10:23;15.20;99.90
4604;DHT22;2314;48.272;11.562;2023-09-07T07:12:51;15.40;99.90
4604;DHT22;2314;48.272;11.562;2023-09-07T07:15:18;15.50;99.90
4604;DHT22;2314;48.272;11.562;2023-09-07T07:17:45;15.70;99.90
4604;DHT22;2314;48.272;11.562;2023-09-07T07:20:13;15.60;99.90
4604;DHT22;2314;48.272;11.562;2023-09-07T07:22:40;15.70;99.90
4604;DHT22;2314;48.272;11.562;2023-09-07T07:25:09;15.80;99.90
4604;DHT22;2314;48.272;11.562;2023-09-07T07:27:36;15.80;99.90
4604;DHT22;2314;48.272;11.562;2023-09-07T07:30:05;16.10;99.90
4604;DHT22;2314;48.272;11.562;2023-09-07T07:32:32;16.10;99.90
4604;DHT22;2314;48.272;11.562;2023-09-07T07:34:59;16.20;99.90
4604;DHT22;2314;48.272;11.562;2023-09-07T07:37:26;16.10;99.90
4604;DHT22;2314;48.272;11.562;2023-09-07T07:39:54;16.10;99.90
4604;DHT22;2314;48.272;11.562;2023-09-07T07:42:22;16.20;99.90
4604;DHT22;2314;48.272;11.562;2023-09-07T07:44:49;16.40;99.90
4604;DHT22;2314;48.272;11.562;2023-09-07T07:47:17;16.50;99.90
4604;DHT22;2314;48.272;11.562;2023-09-07T07:49:44;16.60;99.90
4604;DHT22;2314;48.272;11.562;2023-09-07T07:52:11;16.60;99.90
4604;DHT22;2314;48.272;11.562;2023-09-07T07:54:38;16.60;99.90
4604;DHT22;2314;48.272;11.562;2023-09-07T07:57:05;16.60;99.90
4604;DHT22;2314;48.272;11.562;2023-09-07T07:59:34;16.80;99.90
4604;DHT22;2314;48.272;11.562;2023-09-07T08:02:01;17.00;99.90
4604;DHT22;2314;48.272;11.562;2023-09-07T08:04:29;17.10;99.90
4604;DHT22;2314;48.272;11.562;2023-09-07T08:06:58;17.20;99.90
4604;DHT22;2314;48.272;11.562;2023-09-07T08:09:29;17.30;99.90
4604;DHT22;2314;48.272;11.562;2023-09-07T08:11:56;17.40;99.90
4604;DHT22;2314;48.272;11.562;2023-09-07T08:14:24;17.50;99.90
4604;DHT22;2314;48.272;11.562;2023-09-07T08:16:53;17.60;99.90
4604;DHT22;2314;48.272;11.562;2023-09-07T08:19:20;17.70;99.90
4604;DHT22;2314;48.272;11.562;2023-09-07T08:21:47;17.90;99.90
4604;DHT22;2314;48.272;11.562;2023-09-07T08:24:15;18.20;99.90
4604;DHT22;2314;48.272;11.562;2023-09-07T08:26:42;18.30;99.90
4604;DHT22;2314;48.272;11.562;2023-09-07T08:29:10;18.70;99.90
4604;DHT22;2314;48.272;11.562;2023-09-07T08:31:37;19.30;99.90
4604;DHT22;2314;48.272;11.562;2023-09-07T08:34:07;19.80;99.90
4604;DHT22;2314;48.272;11.562;2023-09-07T08:36:36;20.70;99.90
4604;DHT22;2314;48.272;11.562;2023-09-07T08:39:04;21.60;99.90
4604;DHT22;2314;48.272;11.562;2023-09-07T08:41:37;21.80;99.90
4604;DHT22;2314;48.272;11.562;2023-09-07T08:44:08;21.80;99.90
4604;DHT22;2314;48.272;11.562;2023-09-07T08:46:37;22.80;99.90
4604;DHT22;2314;48.272;11.562;2023-09-07T08:49:05;24.40;99.90
4604;DHT22;2314;48.272;11.562;2023-09-07T08:51:35;26.20;99.90
4604;DHT22;2314;48.272;11.562;2023-09-07T08:54:03;27.40;99.90
4604;DHT22;2314;48.272;11.562;2023-09-07T08:56:30;28.20;99.90
4604;DHT22;2314;48.272;11.562;2023-09-07T08:58:58;29.30;98.20
4604;DHT22;2314;48.272;11.562;2023-09-07T09:01:27;30.00;97.70
4604;DHT22;2314;48.272;11.562;2023-09-07T09:03:54;30.70;92.80
4604;DHT22;2314;48.272;11.562;2023-09-07T09:06:23;30.70;91.60
4604;DHT22;2314;48.272;11.562;2023-09-07T09:08:51;30.50;91.20
4604;DHT22;2314;48.272;11.562;2023-09-07T09:11:20;29.50;92.50
4604;DHT22;2314;48.272;11.562;2023-09-07T09:13:48;29.10;95.80
4604;DHT22;2314;48.272;11.562;2023-09-07T09:16:16;29.10;93.90
4604;DHT22;2314;48.272;11.562;2023-09-07T09:18:48;29.00;94.20
4604;DHT22;2314;48.272;11.562;2023-09-07T09:21:17;28.90;94.40
4604;DHT22;2314;48.272;11.562;2023-09-07T09:23:48;28.90;94.50
4604;DHT22;2314;48.272;11.562;2023-09-07T09:26:16;29.30;92.90
4604;DHT22;2314;48.272;11.562;2023-09-07T09:28:44;29.60;92.90
4604;DHT22;2314;48.272;11.562;2023-09-07T09:31:12;30.00;91.70
4604;DHT22;2314;48.272;11.562;2023-09-07T09:33:40;29.80;91.50
4604;DHT22;2314;48.272;11.562;2023-09-07T09:36:08;30.10;94.10
4604;DHT22;2314;48.272;11.562;2023-09-07T09:38:36;30.10;90.80
4604;DHT22;2314;48.272;11.562;2023-09-07T09:41:05;29.90;91.30
4604;DHT22;2314;48.272;11.562;2023-09-07T09:43:35;30.10;90.40
4604;DHT22;2314;48.272;11.562;2023-09-07T09:46:20;30.10;90.70
4604;DHT22;2314;48.272;11.562;2023-09-07T09:48:49;29.70;92.60
4604;DHT22;2314;48.272;11.562;2023-09-07T09:51:18;29.60;91.40
4604;DHT22;2314;48.272;11.562;2023-09-07T09:53:45;29.30;92.00
4604;DHT22;2314;48.272;11.562;2023-09-07T09:56:14;29.30;93.70
4604;DHT22;2314;48.272;11.562;2023-09-07T09:58:42;30.00;92.20
4604;DHT22;2314;48.272;11.562;2023-09-07T10:01:10;30.30;91.30
4604;DHT22;2314;48.272;11.562;2023-09-07T10:03:44;30.40;92.00
4604;DHT22;2314;48.272;11.562;2023-09-07T10:06:18;30.80;91.00
4604;DHT22;2314;48.272;11.562;2023-09-07T10:08:55;30.90;91.00
4604;DHT22;2314;48.272;11.562;2023-09-07T10:11:31;30.50;87.70
4604;DHT22;2314;48.272;11.562;2023-09-07T10:14:00;29.60;91.10
4604;DHT22;2314;48.272;11.562;2023-09-07T10:16:41;29.60;93.50
4604;DHT22;2314;48.272;11.562;2023-09-07T10:19:14;29.90;90.60
4604;DHT22;2314;48.272;11.562;2023-09-07T10:21:42;29.80;93.40
4604;DHT22;2314;48.272;11.562;2023-09-07T10:24:09;29.80;90.70
4604;DHT22;2314;48.272;11.562;2023-09-07T10:26:38;30.10;91.90
4604;DHT22;2314;48.272;11.562;2023-09-07T10:29:05;29.80;89.30
4604;DHT22;2314;48.272;11.562;2023-09-07T10:31:32;29.20;88.60
4604;DHT22;2314;48.272;11.562;2023-09-07T10:34:09;28.80;91.00
4604;DHT22;2314;48.272;11.562;2023-09-07T10:36:37;29.00;93.20
4604;DHT22;2314;48.272;11.562;2023-09-07T10:39:05;29.20;94.50
4604;DHT22;2314;48.272;11.562;2023-09-07T10:41:41;29.50;91.40
4604;DHT22;2314;48.272;11.562;2023-09-07T10:44:09;29.30;90.90
4604;DHT22;2314;48.272;11.562;2023-09-07T10:46:38;29.20;92.00
4604;DHT22;2314;48.272;11.562;2023-09-07T10:49:07;29.20;90.20
4604;DHT22;2314;48.272;11.562;2023-09-07T10:51:41;29.20;87.00
4604;DHT22;2314;48.272;11.562;2023-09-07T10:54:15;29.00;91.30
4604;DHT22;2314;48.272;11.562;2023-09-07T10:56:49;28.80;90.00
4604;DHT22;2314;48.272;11.562;2023-09-07T10:59:17;28.50;92.80
4604;DHT22;2314;48.272;11.562;2023-09-07T11:01:45;28.30;90.30
4604;DHT22;2314;48.272;11.562;2023-09-07T11:04:15;27.90;90.30
4604;DHT22;2314;48.272;11.562;2023-09-07T11:06:44;27.70;90.70
4604;DHT22;2314;48.272;11.562;2023-09-07T11:09:11;27.50;92.70
4604;DHT22;2314;48.272;11.562;2023-09-07T11:11:39;27.60;93.80
4604;DHT22;2314;48.272;11.562;2023-09-07T11:14:08;27.90;93.60
4604;DHT22;2314;48.272;11.562;2023-09-07T11:16:35;28.00;91.30
4604;DHT22;2314;48.272;11.562;2023-09-07T11:19:06;28.30;93.50
4604;DHT22;2314;48.272;11.562;2023-09-07T11:21:35;28.10;91.70
4604;DHT22;2314;48.272;11.562;2023-09-07T11:24:02;28.20;92.50
4604;DHT22;2314;48.272;11.562;2023-09-07T11:26:41;28.10;89.20
4604;DHT22;2314;48.272;11.562;2023-09-07T11:29:13;28.10;92.50
4604;DHT22;2314;48.272;11.562;2023-09-07T11:31:40;28.10;87.70
4604;DHT22;2314;48.272;11.562;2023-09-07T11:34:09;28.00;92.00
4604;DHT22;2314;48.272;11.562;2023-09-07T11:36:36;28.20;92.80
4604;DHT22;2314;48.272;11.562;2023-09-07T11:39:04;28.40;84.40
4604;DHT22;2314;48.272;11.562;2023-09-07T11:41:37;28.20;87.50
4604;DHT22;2314;48.272;11.562;2023-09-07T11:44:06;27.90;85.50
4604;DHT22;2314;48.272;11.562;2023-09-07T11:46:35;27.80;89.10
4604;DHT22;2314;48.272;11.562;2023-09-07T11:49:03;27.90;92.60
4604;DHT22;2314;48.272;11.562;2023-09-07T11:51:31;28.10;90.40
4604;DHT22;2314;48.272;11.562;2023-09-07T11:53:58;28.30;90.10
4604;DHT22;2314;48.272;11.562;2023-09-07T11:56:25;28.30;90.20
4604;DHT22;2314;48.272;11.562;2023-09-07T11:58:52;28.40;90.60
4604;DHT22;2314;48.272;11.562;2023-09-07T12:01:20;28.30;86.60
4604;DHT22;2314;48.272;11.562;2023-09-07T12:03:49;28.40;91.00
4604;DHT22;2314;48.272;11.562;2023-09-07T12:06:16;28.40;88.30
4604;DHT22;2314;48.272;11.562;2023-09-07T12:08:58;28.40;87.20
4604;DHT22;2314;48.272;11.562;2023-09-07T12:11:25;28.40;88.00
4604;DHT22;2314;48.272;11.562;2023-09-07T12:13:53;28.20;85.50
4604;DHT22;2314;48.272;11.562;2023-09-07T12:16:20;28.10;85.30
4604;DHT22;2314;48.272;11.562;2023-09-07T12:18:48;28.00;84.00
4604;DHT22;2314;48.272;11.562;2023-09-07T12:21:15;27.90;89.90
4604;DHT22;2314;48.272;11.562;2023-09-07T12:23:42;28.10;87.10
4604;DHT22;2314;48.272;11.562;2023-09-07T12:26:09;28.20;84.70
4604;DHT22;2314;48.272;11.562;2023-09-07T12:28:37;28.20;84.10
4604;DHT22;2314;48.272;11.562;2023-09-07T12:31:04;28.10;90.90
4604;DHT22;2314;48.272;11.562;2023-09-07T12:33:31;28.20;90.10
4604;DHT22;2314;48.272;11.562;2023-09-07T12:36:00;28.30;85.90
4604;DHT22;2314;48.272;11.562;2023-09-07T12:38:27;28.40;90.10
4604;DHT22;2314;48.272;11.562;2023-09-07T12:40:54;28.30;86.10
4604;DHT22;2314;48.272;11.562;2023-09-07T12:43:21;28.30;91.50
4604;DHT22;2314;48.272;11.562;2023-09-07T12:45:50;28.30;91.80
4604;DHT22;2314;48.272;11.562;2023-09-07T12:48:17;28.30;90.50
4604;DHT22;2314;48.272;11.562;2023-09-07T12:50:44;28.20;90.40
4604;DHT22;2314;48.272;11.562;2023-09-07T12:53:12;28.10;89.30
4604;DHT22;2314;48.272;11.562;2023-09-07T12:55:40;28.20;85.30
4604;DHT22;2314;48.272;11.562;2023-09-07T12:58:07;28.00;87.40
4604;DHT22;2314;48.272;11.562;2023-09-07T13:00:34;28.00;84.40
4604;DHT22;2314;48.272;11.562;2023-09-07T13:03:01;28.00;82.00
4604;DHT22;2314;48.272;11.562;2023-09-07T13:05:28;28.00;87.40
4604;DHT22;2314;48.272;11.562;2023-09-07T13:07:55;28.00;82.40
4604;DHT22;2314;48.272;11.562;2023-09-07T13:10:26;28.10;83.20
4604;DHT22;2314;48.272;11.562;2023-09-07T13:12:53;28.10;86.50
4604;DHT22;2314;48.272;11.562;2023-09-07T13:15:20;28.10;90.00
4604;DHT22;2314;48.272;11.562;2023-09-07T13:17:48;28.20;88.40
4604;DHT22;2314;48.272;11.562;2023-09-07T13:20:15;28.30;90.90
4604;DHT22;2314;48.272;11.562;2023-09-07T13:22:42;28.30;91.10
4604;DHT22;2314;48.272;11.562;2023-09-07T13:25:09;28.40;91.10
4604;DHT22;2314;48.272;11.562;2023-09-07T13:27:38;28.40;86.40
4604;DHT22;2314;48.272;11.562;2023-09-07T13:30:06;28.20;84.70
4604;DHT22;2314;48.272;11.562;2023-09-07T13:32:34;28.10;87.70
4604;DHT22;2314;48.272;11.562;2023-09-07T13:35:01;28.00;86.40
4604;DHT22;2314;48.272;11.562;2023-09-07T13:37:28;28.00;89.50
4604;DHT22;2314;48.272;11.562;2023-09-07T13:39:55;28.10;84.60
4604;DHT22;2314;48.272;11.562;2023-09-07T13:42:22;28.10;82.40
4604;DHT22;2314;48.272;11.562;2023-09-07T13:44:51;28.00;89.70
4604;DHT22;2314;48.272;11.562;2023-09-07T13:47:17;28.10;88.00
4604;DHT22;2314;48.272;11.562;2023-09-07T13:49:44;28.10;89.00
4604;DHT22;2314;48.272;11.562;2023-09-07T13:52:11;28.20;84.10
4604;DHT22;2314;48.272;11.562;2023-09-07T13:54:39;28.00;86.00
4604;DHT22;2314;48.272;11.562;2023-09-07T13:57:06;28.10;91.70
4604;DHT22;2314;48.272;11.562;2023-09-07T13:59:34;28.10;85.70
4604;DHT22;2314;48.272;11.562;2023-09-07T14:02:03;28.00;81.50
4604;DHT22;2314;48.272;11.562;2023-09-07T14:04:30;28.00;89.80
4604;DHT22;2314;48.272;11.562;2023-09-07T14:06:57;27.90;84.00
4604;DHT22;2314;48.272;11.562;2023-09-07T14:09:24;27.90;81.10
4604;DHT22;2314;48.272;11.562;2023-09-07T14:11:51;27.90;80.70
4604;DHT22;2314;48.272;11.562;2023-09-07T14:14:18;27.80;78.60
4604;DHT22;2314;48.272;11.562;2023-09-07T14:16:49;27.70;80.20
4604;DHT22;2314;48.272;11.562;2023-09-07T14:19:22;27.70;88.00
4604;DHT22;2314;48.272;11.562;2023-09-07T14:21:49;27.80;80.40
4604;DHT22;2314;48.272;11.562;2023-09-07T14:24:16;27.80;85.50
4604;DHT22;2314;48.272;11.562;2023-09-07T14:26:42;27.80;85.50
4604;DHT22;2314;48.272;11.562;2023-09-07T14:29:10;27.80;86.70
4604;DHT22;2314;48.272;11.562;2023-09-07T14:31:37;27.70;85.70
4604;DHT22;2314;48.272;11.562;2023-09-07T14:34:07;27.70;88.10
4604;DHT22;2314;48.272;11.562;2023-09-07T14:36:36;27.70;87.20
4604;DHT22;2314;48.272;11.562;2023-09-07T14:39:06;27.60;86.20
4604;DHT22;2314;48.272;11.562;2023-09-07T14:41:33;27.60;90.70
4604;DHT22;2314;48.272;11.562;2023-09-07T14:44:01;27.60;83.30
4604;DHT22;2314;48.272;11.562;2023-09-07T14:46:28;27.60;83.30
4604;DHT22;2314;48.272;11.562;2023-09-07T14:48:55;27.50;85.60
4604;DHT22;2314;48.272;11.562;2023-09-07T14:51:23;27.50;83.10
4604;DHT22;2314;48.272;11.562;2023-09-07T14:53:52;27.40;83.30
4604;DHT22;2314;48.272;11.562;2023-09-07T14:56:19;27.40;85.50
4604;DHT22;2314;48.272;11.562;2023-09-07T14:58:46;27.40;82.80
4604;DHT22;2314;48.272;11.562;2023-09-07T15:01:13;27.30;82.30
4604;DHT22;2314;48.272;11.562;2023-09-07T15:03:40;27.30;81.30
4604;DHT22;2314;48.272;11.562;2023-09-07T15:06:07;27.20;83.40
4604;DHT22;2314;48.272;11.562;2023-09-07T15:08:37;27.10;83.20
4604;DHT22;2314;48.272;11.562;2023-09-07T15:11:05;27.00;85.50
4604;DHT22;2314;48.272;11.562;2023-09-07T15:13:32;27.00;87.50
4604;DHT22;2314;48.272;11.562;2023-09-07T15:15:59;27.00;88.40
4604;DHT22;2314;48.272;11.562;2023-09-07T15:18:26;26.80;83.70
4604;DHT22;2314;48.272;11.562;2023-09-07T15:20:54;26.80;87.50
4604;DHT22;2314;48.272;11.562;2023-09-07T15:23:22;26.80;84.80
4604;DHT22;2314;48.272;11.562;2023-09-07T15:25:49;26.80;86.10
4604;DHT22;2314;48.272;11.562;2023-09-07T15:28:19;26.80;87.70
4604;DHT22;2314;48.272;11.562;2023-09-07T15:30:46;26.80;83.70
4604;DHT22;2314;48.272;11.562;2023-09-07T15:33:13;26.80;84.60
4604;DHT22;2314;48.272;11.562;2023-09-07T15:35:40;26.70;83.50
4604;DHT22;2314;48.272;11.562;2023-09-07T15:38:07;26.70;85.20
4604;DHT22;2314;48.272;11.562;2023-09-07T15:40:34;26.60;83.50
4604;DHT22;2314;48.272;11.562;2023-09-07T15:43:04;26.50;85.30
4604;DHT22;2314;48.272;11.562;2023-09-07T15:45:35;26.40;83.60
4604;DHT22;2314;48.272;11.562;2023-09-07T15:48:04;26.30;83.00
4604;DHT22;2314;48.272;11.562;2023-09-07T15:50:32;26.10;84.90